Terminal Aerodrome Forecast
Issued by NWS

Home | Current Version | Previous Version | Text Only | Print | Product List | Glossary On
Versions: 1 2 3 4 5 6 7 8 9 10 11 12
715
FTUS41 KBTV 241130
TAFRUT
TAF
KRUT 241130Z 2412/2512 00000KT P6SM VCSH BKN050
      TEMPO 2414/2418 5SM -SHRA BR OVC030
     FM241900 15004KT P6SM BKN035
     FM250000 17007KT P6SM SCT070
     FM250600 17007KT P6SM BKN015
     FM250900 16007KT P6SM BKN008=

USA.gov is the U.S. government's official web portal to all federal, state and local government web resources and services.